createdAt,value
2018-08-11T00:00:28.380Z,0.00
2018-08-11T00:01:28.409Z,0.00
2018-08-11T00:02:28.529Z,0.00
2018-08-11T00:03:28.619Z,0.00
2018-08-11T00:04:28.551Z,0.00
2018-08-11T00:05:28.566Z,0.00
2018-08-11T00:06:28.453Z,0.00
2018-08-11T00:07:28.589Z,0.00
2018-08-11T00:08:28.636Z,0.00
2018-08-11T00:09:28.607Z,0.00
2018-08-11T00:10:28.505Z,0.00
2018-08-11T00:11:28.499Z,0.00
2018-08-11T00:12:28.646Z,0.00
2018-08-11T00:13:28.731Z,0.00
2018-08-11T00:14:28.538Z,0.00
2018-08-11T00:15:28.566Z,0.00
2018-08-11T00:16:28.556Z,0.00
2018-08-11T00:17:28.581Z,0.00
2018-08-11T00:18:28.785Z,0.00
2018-08-11T00:19:28.605Z,0.00
2018-08-11T00:20:28.732Z,0.00
2018-08-11T00:21:28.630Z,0.00
2018-08-11T00:22:28.631Z,0.00
2018-08-11T00:23:28.865Z,0.00
2018-08-11T00:24:28.664Z,0.00
2018-08-11T00:25:28.675Z,0.00
2018-08-11T00:26:28.677Z,0.00
2018-08-11T00:27:28.701Z,0.00
2018-08-11T00:28:29.025Z,0.00
2018-08-11T00:29:28.851Z,0.00
2018-08-11T00:30:28.735Z,0.00
2018-08-11T00:31:28.867Z,0.00
2018-08-11T00:32:28.870Z,0.00
2018-08-11T00:33:29.089Z,0.00
2018-08-11T00:34:28.776Z,0.00
2018-08-11T00:35:28.910Z,0.00
2018-08-11T00:36:28.965Z,0.00
2018-08-11T00:37:28.816Z,0.00
2018-08-11T00:38:29.020Z,0.00
2018-08-11T00:39:28.817Z,0.00
2018-08-11T00:40:28.838Z,0.00
2018-08-11T00:41:28.851Z,0.00
2018-08-11T00:42:28.864Z,0.00
2018-08-11T00:43:29.198Z,0.00
2018-08-11T00:44:29.007Z,0.00
2018-08-11T00:45:28.898Z,0.00
2018-08-11T00:46:29.032Z,0.00
2018-08-11T00:47:29.044Z,0.00
2018-08-11T00:48:29.131Z,0.00
2018-08-11T00:49:28.961Z,0.00
2018-08-11T00:50:28.947Z,0.00
2018-08-11T00:51:29.088Z,0.00
2018-08-11T00:52:29.098Z,0.00
2018-08-11T00:53:29.180Z,0.00
2018-08-11T00:54:28.984Z,0.00
2018-08-11T00:55:29.015Z,0.00
2018-08-11T00:56:29.017Z,0.00
2018-08-11T00:57:29.151Z,0.00
2018-08-11T00:58:29.246Z,0.00
2018-08-11T00:59:29.042Z,0.00
2018-08-11T01:00:29.185Z,0.00
2018-08-11T01:01:29.192Z,0.00
2018-08-11T01:02:29.143Z,0.00
2018-08-11T01:03:29.093Z,0.00
2018-08-11T01:04:29.432Z,0.00
2018-08-11T01:05:29.243Z,0.00
2018-08-11T01:06:29.244Z,0.00
2018-08-11T01:07:29.133Z,0.00
2018-08-11T01:08:29.272Z,0.00
2018-08-11T01:09:29.484Z,0.00
2018-08-11T01:10:29.169Z,0.00
2018-08-11T01:11:29.192Z,0.00
2018-08-11T01:12:29.193Z,0.00
2018-08-11T01:13:29.328Z,0.00
2018-08-11T01:14:29.414Z,0.00
2018-08-11T01:15:29.212Z,0.00
2018-08-11T01:16:29.357Z,0.00
2018-08-11T01:17:29.369Z,0.00
2018-08-11T01:18:29.260Z,0.00
2018-08-11T01:19:29.590Z,0.00
2018-08-11T01:20:29.321Z,0.00
2018-08-11T01:21:29.290Z,0.00
2018-08-11T01:22:29.426Z,0.00
2018-08-11T01:23:29.311Z,0.00
2018-08-11T01:24:29.743Z,0.00
2018-08-11T01:25:29.325Z,0.00
2018-08-11T01:26:29.353Z,0.00
2018-08-11T01:27:29.480Z,0.00
2018-08-11T01:28:29.487Z,0.00
2018-08-11T01:29:29.618Z,0.00
2018-08-11T01:30:29.377Z,0.00
2018-08-11T01:31:29.392Z,0.00
2018-08-11T01:32:29.416Z,0.00
2018-08-11T01:33:29.453Z,0.00
2018-08-11T01:34:29.634Z,0.00
2018-08-11T01:35:29.441Z,0.00
2018-08-11T01:36:29.573Z,0.00
2018-08-11T01:37:29.459Z,0.00
2018-08-11T01:38:29.480Z,0.00
2018-08-11T01:39:29.729Z,0.00
2018-08-11T01:40:29.484Z,0.00
2018-08-11T01:41:29.509Z,0.00
2018-08-11T01:42:29.505Z,0.00
2018-08-11T01:43:29.521Z,0.00
2018-08-11T01:44:29.737Z,0.00
2018-08-11T01:45:29.547Z,0.00
2018-08-11T01:46:29.554Z,0.00
2018-08-11T01:47:29.563Z,0.00
2018-08-11T01:48:29.697Z,0.00
2018-08-11T01:49:29.797Z,0.00
2018-08-11T01:50:29.601Z,0.00
2018-08-11T01:51:29.603Z,0.00
2018-08-11T01:52:29.613Z,0.00
2018-08-11T01:53:29.753Z,0.00
2018-08-11T01:54:29.848Z,0.00
2018-08-11T01:55:29.647Z,0.00
2018-08-11T01:56:29.664Z,0.00
2018-08-11T01:57:29.671Z,0.00
2018-08-11T01:58:29.808Z,0.00
2018-08-11T01:59:30.016Z,0.00
2018-08-11T02:00:29.708Z,0.00
2018-08-11T02:01:29.840Z,0.00
2018-08-11T02:02:29.849Z,0.00
2018-08-11T02:03:29.738Z,0.00
2018-08-11T02:04:29.941Z,0.00
2018-08-11T02:05:29.756Z,0.00
2018-08-11T02:06:29.764Z,0.00
2018-08-11T02:07:29.778Z,0.00
2018-08-11T02:09:30.126Z,0.00
2018-08-11T02:10:29.805Z,0.00
2018-08-11T02:11:29.944Z,0.00
2018-08-11T02:12:29.822Z,0.00
2018-08-11T02:13:29.963Z,0.00
2018-08-11T02:14:31.101Z,0.00
2018-08-11T02:15:29.858Z,0.00
2018-08-11T02:16:29.877Z,0.00
2018-08-11T02:17:30.005Z,0.00
2018-08-11T02:18:29.886Z,0.00
2018-08-11T02:19:30.162Z,0.00
2018-08-11T02:20:30.040Z,0.00
2018-08-11T02:21:30.045Z,0.00
2018-08-11T02:22:30.053Z,0.00
2018-08-11T02:23:29.941Z,0.00
2018-08-11T02:24:30.074Z,0.00
2018-08-11T02:25:30.341Z,0.00
2018-08-11T02:26:29.985Z,0.00
2018-08-11T02:27:29.973Z,0.00
2018-08-11T02:28:30.123Z,0.00
2018-08-11T02:29:30.006Z,0.00
2018-08-11T02:30:30.257Z,0.00
2018-08-11T02:31:30.014Z,0.00
2018-08-11T02:32:30.158Z,0.00
2018-08-11T02:33:30.176Z,0.00
2018-08-11T02:34:30.264Z,0.00
2018-08-11T02:35:30.212Z,0.00
2018-08-11T02:36:30.118Z,0.00
2018-08-11T02:37:30.129Z,0.00
2018-08-11T02:38:30.105Z,0.00
2018-08-11T02:39:30.113Z,0.00
2018-08-11T02:40:30.495Z,0.00
2018-08-11T02:41:30.134Z,0.00
2018-08-11T02:42:30.135Z,0.00
2018-08-11T02:43:30.270Z,0.00
2018-08-11T02:44:30.281Z,0.00
2018-08-11T02:45:30.366Z,0.00
2018-08-11T02:46:30.194Z,0.00
2018-08-11T02:47:30.191Z,0.00
2018-08-11T02:48:30.329Z,0.00
2018-08-11T02:49:30.215Z,0.00
2018-08-11T02:50:30.458Z,0.00
2018-08-11T02:51:30.217Z,0.00
2018-08-11T02:52:30.238Z,0.00
2018-08-11T02:53:30.378Z,0.00
2018-08-11T02:54:30.393Z,0.00
2018-08-11T02:55:30.648Z,0.00
2018-08-11T02:56:30.282Z,0.00
2018-08-11T02:57:30.283Z,0.00
2018-08-11T02:58:30.429Z,0.00
2018-08-11T02:59:30.438Z,0.00
2018-08-11T03:00:30.694Z,0.00
2018-08-11T03:01:30.333Z,0.00
2018-08-11T03:02:30.530Z,0.00
2018-08-11T03:03:30.353Z,0.00
2018-08-11T03:04:30.361Z,0.00
2018-08-11T03:05:30.626Z,0.00
2018-08-11T03:06:30.375Z,0.00
2018-08-11T03:07:30.388Z,0.00
2018-08-11T03:08:30.421Z,0.00
2018-08-11T03:09:30.412Z,0.00
2018-08-11T03:10:30.620Z,0.00
2018-08-11T03:11:30.484Z,0.00
2018-08-11T03:12:30.566Z,0.00
2018-08-11T03:13:30.573Z,0.00
2018-08-11T03:14:30.471Z,0.00
2018-08-11T03:15:30.797Z,0.00
2018-08-11T03:16:30.484Z,0.00
2018-08-11T03:17:30.490Z,0.00
2018-08-11T03:18:30.497Z,0.00
2018-08-11T03:19:30.519Z,0.00
2018-08-11T03:20:30.770Z,0.00
2018-08-11T03:21:30.660Z,0.00
2018-08-11T03:22:30.664Z,0.00
2018-08-11T03:23:30.678Z,0.00
2018-08-11T03:24:30.572Z,0.00
2018-08-11T03:25:30.948Z,0.00
2018-08-11T03:26:30.591Z,0.00
2018-08-11T03:27:30.719Z,0.00
2018-08-11T03:28:30.726Z,0.00
2018-08-11T03:29:30.737Z,0.00
2018-08-11T03:30:31.053Z,0.00
2018-08-11T03:31:30.760Z,0.00
2018-08-11T03:32:30.703Z,0.00
2018-08-11T03:33:30.774Z,0.00
2018-08-11T03:34:30.664Z,0.00
2018-08-11T03:35:30.673Z,0.00
2018-08-11T03:36:30.927Z,0.00
2018-08-11T03:37:30.813Z,0.00
2018-08-11T03:38:30.699Z,0.00
2018-08-11T03:39:30.836Z,0.00
2018-08-11T03:40:30.725Z,0.00
2018-08-11T03:41:31.103Z,0.00
2018-08-11T03:42:30.867Z,0.00
2018-08-11T03:43:30.770Z,0.00
2018-08-11T03:44:30.886Z,0.00
2018-08-11T03:45:30.892Z,0.00
2018-08-11T03:46:31.099Z,0.00
2018-08-11T03:47:30.788Z,0.00
2018-08-11T03:48:30.810Z,0.00
2018-08-11T03:49:30.819Z,0.00
2018-08-11T03:50:30.829Z,0.00
2018-08-11T03:51:31.125Z,0.00
2018-08-11T03:52:30.926Z,0.00
2018-08-11T03:53:30.851Z,0.00
2018-08-11T03:54:30.982Z,0.00
2018-08-11T03:55:30.858Z,0.00
2018-08-11T03:56:31.130Z,0.00
2018-08-11T03:57:31.008Z,0.00
2018-08-11T03:58:30.888Z,0.00
2018-08-11T03:59:30.906Z,0.00
2018-08-11T04:00:30.920Z,0.00
2018-08-11T04:01:31.266Z,0.00
2018-08-11T04:02:30.931Z,0.00
2018-08-11T04:03:31.068Z,0.00
2018-08-11T04:04:30.947Z,0.00
2018-08-11T04:05:30.973Z,0.00
2018-08-11T04:06:31.028Z,0.00
2018-08-11T04:07:31.178Z,0.00
2018-08-11T04:08:30.990Z,0.00
2018-08-11T04:09:31.127Z,0.00
2018-08-11T04:10:31.007Z,0.00
2018-08-11T04:11:31.148Z,0.00
2018-08-11T04:12:31.047Z,0.00
2018-08-11T04:13:31.296Z,0.00
2018-08-11T04:14:31.053Z,0.00
2018-08-11T04:15:31.179Z,0.00
2018-08-11T04:16:31.072Z,0.00
2018-08-11T04:17:31.076Z,0.00
2018-08-11T04:18:31.091Z,0.00
2018-08-11T04:19:31.300Z,0.00
2018-08-11T04:20:31.236Z,0.00
2018-08-11T04:21:31.244Z,0.00
2018-08-11T04:22:31.131Z,0.00
2018-08-11T04:23:31.142Z,0.00
2018-08-11T04:24:31.352Z,0.00
2018-08-11T04:25:31.284Z,0.00
2018-08-11T04:26:31.164Z,0.00
2018-08-11T04:27:31.295Z,0.00
2018-08-11T04:28:31.310Z,0.00
2018-08-11T04:29:31.477Z,0.00
2018-08-11T04:30:31.329Z,0.00
2018-08-11T04:31:31.220Z,0.00
2018-08-11T04:32:31.223Z,0.00
2018-08-11T04:33:31.361Z,0.00
2018-08-11T04:34:31.501Z,0.00
2018-08-11T04:35:31.288Z,0.00
2018-08-11T04:36:31.264Z,0.00
2018-08-11T04:37:31.267Z,0.00
2018-08-11T04:38:31.284Z,0.00
2018-08-11T04:39:31.544Z,0.00
2018-08-11T04:40:31.295Z,0.00
2018-08-11T04:41:31.304Z,0.00
2018-08-11T04:42:31.315Z,0.00
2018-08-11T04:43:31.327Z,0.00
2018-08-11T04:44:31.628Z,0.00
2018-08-11T04:45:31.337Z,0.00
2018-08-11T04:46:31.474Z,0.00
2018-08-11T04:47:31.490Z,0.00
2018-08-11T04:48:31.376Z,0.00
2018-08-11T04:49:31.636Z,0.00
2018-08-11T04:50:31.512Z,0.00
2018-08-11T04:51:31.404Z,0.00
2018-08-11T04:52:31.447Z,0.00
2018-08-11T04:53:31.430Z,0.00
2018-08-11T04:54:31.729Z,0.00
2018-08-11T04:55:31.441Z,0.00
2018-08-11T04:56:31.447Z,0.00
2018-08-11T04:57:31.501Z,0.00
2018-08-11T04:58:31.458Z,0.00
2018-08-11T04:59:31.476Z,0.00
2018-08-11T05:00:31.860Z,0.00
2018-08-11T05:01:31.492Z,0.00
2018-08-11T05:02:31.636Z,0.00
2018-08-11T05:03:31.634Z,0.00
2018-08-11T05:04:31.529Z,0.00
2018-08-11T05:05:31.537Z,0.00
2018-08-11T05:06:31.781Z,0.00
2018-08-11T05:07:31.679Z,0.00
2018-08-11T05:08:31.596Z,0.00
2018-08-11T05:09:31.571Z,0.00
2018-08-11T05:10:31.584Z,0.00
2018-08-11T05:11:31.597Z,0.00
2018-08-11T05:12:31.976Z,0.00
2018-08-11T05:13:31.650Z,0.00
2018-08-11T05:14:31.617Z,0.00
2018-08-11T05:15:31.666Z,0.00
2018-08-11T05:16:31.758Z,0.00
2018-08-11T05:17:31.647Z,0.00
2018-08-11T05:18:32.029Z,0.00
2018-08-11T05:19:31.818Z,0.00
2018-08-11T05:20:31.678Z,0.00
2018-08-11T05:21:31.683Z,0.00
2018-08-11T05:22:31.817Z,0.00
2018-08-11T05:23:31.694Z,0.00
2018-08-11T05:24:32.007Z,0.00
2018-08-11T05:25:31.709Z,0.00
2018-08-11T05:26:31.743Z,0.00
2018-08-11T05:27:31.737Z,0.00
2018-08-11T05:28:31.871Z,0.00
2018-08-11T05:29:32.179Z,0.00
2018-08-11T05:30:31.794Z,0.00
2018-08-11T05:31:31.780Z,0.00
2018-08-11T05:32:31.901Z,0.00
2018-08-11T05:33:31.912Z,0.00
2018-08-11T05:34:32.174Z,0.00
2018-08-11T05:35:31.934Z,0.00
2018-08-11T05:36:31.808Z,0.00
2018-08-11T05:37:31.950Z,0.00
2018-08-11T05:38:31.837Z,0.00
2018-08-11T05:39:32.091Z,0.00
2018-08-11T05:40:31.976Z,0.00
2018-08-11T05:41:31.882Z,0.00
2018-08-11T05:42:31.995Z,0.00
2018-08-11T05:43:31.890Z,0.00
2018-08-11T05:44:32.141Z,0.00
2018-08-11T05:45:32.019Z,0.00
2018-08-11T05:46:32.035Z,0.00
2018-08-11T05:47:32.041Z,0.00
2018-08-11T05:48:32.050Z,0.00
2018-08-11T05:49:32.177Z,0.00
2018-08-11T05:50:31.944Z,0.00
2018-08-11T05:51:32.074Z,0.00
2018-08-11T05:52:31.967Z,0.00
2018-08-11T05:53:31.964Z,0.00
2018-08-11T05:54:32.400Z,0.00
2018-08-11T05:55:32.111Z,0.00
2018-08-11T05:56:32.007Z,0.00
2018-08-11T05:57:32.010Z,0.00
2018-08-11T05:58:32.012Z,0.00
2018-08-11T05:59:32.311Z,0.00
2018-08-11T06:00:32.045Z,0.00
2018-08-11T06:01:32.052Z,0.00
2018-08-11T06:02:32.053Z,0.00
2018-08-11T06:03:32.056Z,0.00
2018-08-11T06:04:32.071Z,0.00
2018-08-11T06:05:32.340Z,0.00
2018-08-11T06:06:32.086Z,0.00
2018-08-11T06:07:32.216Z,0.00
2018-08-11T06:08:32.105Z,0.00
2018-08-11T06:09:32.123Z,0.00
2018-08-11T06:10:32.480Z,0.00
2018-08-11T06:11:32.127Z,0.00
2018-08-11T06:12:32.263Z,0.00
2018-08-11T06:13:32.164Z,0.00
2018-08-11T06:14:32.159Z,0.00
2018-08-11T06:15:32.475Z,0.00
2018-08-11T06:16:32.212Z,0.00
2018-08-11T06:17:32.308Z,0.00
2018-08-11T06:18:32.316Z,0.00
2018-08-11T06:19:32.198Z,0.00
2018-08-11T06:20:32.582Z,0.00
2018-08-11T06:21:32.349Z,0.00
2018-08-11T06:22:32.221Z,0.00
2018-08-11T06:23:32.360Z,0.00
2018-08-11T06:24:32.368Z,0.00
2018-08-11T06:25:32.626Z,0.00
2018-08-11T06:26:32.260Z,0.00
2018-08-11T06:27:32.401Z,0.00
2018-08-11T06:28:32.318Z,0.00
2018-08-11T06:29:32.301Z,0.00
2018-08-11T06:30:32.582Z,0.00
2018-08-11T06:31:32.530Z,0.00
2018-08-11T06:32:32.331Z,0.00
2018-08-11T06:33:32.354Z,0.00
2018-08-11T06:34:32.329Z,0.00
2018-08-11T06:35:32.626Z,0.00
2018-08-11T06:36:32.349Z,0.00
2018-08-11T06:37:32.483Z,0.00
2018-08-11T06:38:32.367Z,0.00
2018-08-11T06:39:32.379Z,0.00
2018-08-11T06:40:32.844Z,0.00
2018-08-11T06:41:32.441Z,0.00
2018-08-11T06:42:32.419Z,0.00
2018-08-11T06:43:32.429Z,0.00
2018-08-11T06:44:32.416Z,0.00
2018-08-11T06:45:32.812Z,0.00
2018-08-11T06:46:32.573Z,0.00
2018-08-11T06:47:32.573Z,0.00
2018-08-11T06:48:32.463Z,0.00
2018-08-11T06:49:32.465Z,0.00
2018-08-11T06:50:32.780Z,0.00
2018-08-11T06:51:32.492Z,0.00
2018-08-11T06:52:32.494Z,0.00
2018-08-11T06:53:32.491Z,0.00
2018-08-11T06:54:32.506Z,0.00
2018-08-11T06:55:32.801Z,0.00
2018-08-11T06:56:32.566Z,0.00
2018-08-11T06:57:32.533Z,0.00
2018-08-11T06:58:32.536Z,0.00
2018-08-11T06:59:32.546Z,0.00
2018-08-11T07:00:32.939Z,0.00
2018-08-11T07:01:32.571Z,0.00
2018-08-11T07:02:32.577Z,0.00
2018-08-11T07:03:32.719Z,0.00
2018-08-11T07:04:32.721Z,0.00
2018-08-11T07:05:32.932Z,0.00
2018-08-11T07:06:32.835Z,0.00
2018-08-11T07:07:32.624Z,0.00
2018-08-11T07:08:32.765Z,0.00
2018-08-11T07:09:32.646Z,0.00
2018-08-11T07:10:32.650Z,0.00
2018-08-11T07:11:32.904Z,0.00
2018-08-11T07:12:32.667Z,0.00
2018-08-11T07:13:32.673Z,0.00
2018-08-11T07:14:32.692Z,0.00
2018-08-11T07:15:32.700Z,0.00
2018-08-11T07:16:32.705Z,0.00
2018-08-11T07:17:33.026Z,0.00
2018-08-11T07:18:32.730Z,0.00
2018-08-11T07:19:32.729Z,0.00
2018-08-11T07:20:32.734Z,0.00
2018-08-11T07:21:32.877Z,0.00
2018-08-11T07:22:32.754Z,0.00
2018-08-11T07:23:33.144Z,0.00
2018-08-11T07:24:32.903Z,0.00
2018-08-11T07:25:32.913Z,0.00
2018-08-11T07:26:32.985Z,0.00
2018-08-11T07:27:32.929Z,0.00
2018-08-11T07:28:32.938Z,0.00
2018-08-11T07:29:33.123Z,0.00
2018-08-11T07:30:32.823Z,0.00
2018-08-11T07:31:32.958Z,0.00
2018-08-11T07:32:32.860Z,0.00
2018-08-11T07:33:32.979Z,0.00
2018-08-11T07:34:33.166Z,0.00
2018-08-11T07:35:32.866Z,0.00
2018-08-11T07:36:33.007Z,0.00
2018-08-11T07:37:33.018Z,0.00
2018-08-11T07:38:32.936Z,0.00
2018-08-11T07:39:33.165Z,0.00
2018-08-11T07:40:33.038Z,0.00
2018-08-11T07:41:33.046Z,0.00
2018-08-11T07:42:33.052Z,0.00
2018-08-11T07:43:33.069Z,0.00
2018-08-11T07:44:33.193Z,0.00
2018-08-11T07:45:33.081Z,0.00
2018-08-11T07:46:33.089Z,0.00
2018-08-11T07:47:33.023Z,0.00
2018-08-11T07:48:33.039Z,0.00
2018-08-11T07:49:33.364Z,0.00
2018-08-11T07:50:32.998Z,0.00
2018-08-11T07:51:33.011Z,0.00
2018-08-11T07:52:33.010Z,0.00
2018-08-11T07:53:33.024Z,0.00
2018-08-11T07:54:33.330Z,0.00
2018-08-11T07:55:33.037Z,0.00
2018-08-11T07:56:33.054Z,0.00
2018-08-11T07:57:33.184Z,0.00
2018-08-11T07:58:33.066Z,0.00
2018-08-11T07:59:33.398Z,0.00
2018-08-11T08:00:33.079Z,0.00
2018-08-11T08:01:33.096Z,0.00
2018-08-11T08:02:33.093Z,0.00
2018-08-11T08:03:33.107Z,0.00
2018-08-11T08:04:33.244Z,0.00
2018-08-11T08:05:33.375Z,0.00
2018-08-11T08:06:33.130Z,0.00
2018-08-11T08:07:33.141Z,0.00
2018-08-11T08:08:33.274Z,0.00
2018-08-11T08:09:33.156Z,0.00
2018-08-11T08:10:33.292Z,0.00
2018-08-11T08:11:33.550Z,0.00
2018-08-11T08:12:33.187Z,0.00
2018-08-11T08:13:33.336Z,0.00
2018-08-11T08:14:33.238Z,0.00
2018-08-11T08:15:33.212Z,0.00
2018-08-11T08:16:33.512Z,0.00
2018-08-11T08:17:33.216Z,0.00
2018-08-11T08:18:33.235Z,0.00
2018-08-11T08:19:33.364Z,0.00
2018-08-11T08:20:33.378Z,0.00
2018-08-11T08:21:33.513Z,0.00
2018-08-11T08:22:33.282Z,0.00
2018-08-11T08:23:33.281Z,0.00
2018-08-11T08:24:33.289Z,0.00
2018-08-11T08:25:33.298Z,0.00
2018-08-11T08:26:33.738Z,0.00
2018-08-11T08:27:33.312Z,0.00
2018-08-11T08:28:33.314Z,0.00
2018-08-11T08:29:33.326Z,0.00
2018-08-11T08:30:33.330Z,0.00
2018-08-11T08:31:33.536Z,0.00
2018-08-11T08:32:33.473Z,0.00
2018-08-11T08:33:33.364Z,0.00
2018-08-11T08:34:33.372Z,0.00
2018-08-11T08:35:33.385Z,0.00
2018-08-11T08:36:33.680Z,0.00
2018-08-11T08:37:33.401Z,0.00
2018-08-11T08:38:33.398Z,0.00
2018-08-11T08:39:33.529Z,0.00
2018-08-11T08:40:33.408Z,0.00
2018-08-11T08:41:33.754Z,0.00
2018-08-11T08:42:33.553Z,0.00
2018-08-11T08:43:33.440Z,0.00
2018-08-11T08:44:33.576Z,0.00
2018-08-11T08:45:33.451Z,0.00
2018-08-11T08:46:33.467Z,0.00
2018-08-11T08:47:33.835Z,0.00
2018-08-11T08:48:33.486Z,0.00
2018-08-11T08:49:33.476Z,0.00
2018-08-11T08:50:33.505Z,0.00
2018-08-11T08:51:33.547Z,0.00
2018-08-11T08:52:33.510Z,0.00
2018-08-11T08:53:33.778Z,0.00
2018-08-11T08:54:33.650Z,0.00
2018-08-11T08:55:33.535Z,0.00
2018-08-11T08:56:33.673Z,0.00
2018-08-11T08:57:33.682Z,0.00
2018-08-11T08:58:33.559Z,0.00
2018-08-11T08:59:33.825Z,0.00
2018-08-11T09:00:33.599Z,0.00
2018-08-11T09:01:33.591Z,0.00
2018-08-11T09:02:33.599Z,0.00
2018-08-11T09:03:33.609Z,0.00
2018-08-11T09:04:33.731Z,0.00
2018-08-11T09:05:33.877Z,0.00
2018-08-11T09:06:33.674Z,0.00
2018-08-11T09:07:33.625Z,4.00
2018-08-11T09:08:33.647Z,0.00
2018-08-11T09:09:33.645Z,0.00
2018-08-11T09:10:33.862Z,0.00
2018-08-11T09:11:33.789Z,4.00
2018-08-11T09:12:33.800Z,0.00
2018-08-11T09:13:33.683Z,4.00
2018-08-11T09:14:33.678Z,4.00
2018-08-11T09:15:34.069Z,8.00
2018-08-11T09:16:33.831Z,12.00
2018-08-11T09:17:33.717Z,12.00
2018-08-11T09:18:33.846Z,16.00
2018-08-11T09:19:33.740Z,24.00
2018-08-11T09:20:34.108Z,28.00
2018-08-11T09:21:33.755Z,36.00
2018-08-11T09:22:33.787Z,48.00
2018-08-11T09:23:33.766Z,56.00
2018-08-11T09:24:33.765Z,68.00
2018-08-11T09:25:33.978Z,84.00
2018-08-11T09:26:33.782Z,100.00
2018-08-11T09:27:33.918Z,120.00
2018-08-11T09:28:33.797Z,144.00
2018-08-11T09:29:33.802Z,168.00
2018-08-11T09:30:34.014Z,196.00
2018-08-11T09:31:33.819Z,232.00
2018-08-11T09:32:33.833Z,268.00
2018-08-11T09:33:33.883Z,304.00
2018-08-11T09:34:33.970Z,348.00
2018-08-11T09:35:33.984Z,396.00
2018-08-11T09:36:34.284Z,444.00
2018-08-11T09:37:33.871Z,496.00
2018-08-11T09:38:34.011Z,552.00
2018-08-11T09:39:34.008Z,616.00
2018-08-11T09:40:33.894Z,676.00
2018-08-11T09:41:33.911Z,744.00
2018-08-11T09:42:34.160Z,812.00
2018-08-11T09:43:34.042Z,884.00
2018-08-11T09:44:33.924Z,964.00
2018-08-11T09:45:34.093Z,1312.00
2018-08-11T09:46:33.937Z,2292.00
2018-08-11T09:47:34.245Z,2964.00
2018-08-11T09:48:34.081Z,3344.00
2018-08-11T09:49:33.969Z,3704.00
2018-08-11T09:50:33.968Z,4124.00
2018-08-11T09:51:34.105Z,4544.00
2018-08-11T09:52:34.244Z,4940.00
2018-08-11T09:53:34.006Z,5392.00
2018-08-11T09:54:34.001Z,5884.00
2018-08-11T09:55:34.021Z,6376.00
2018-08-11T09:56:34.148Z,6856.00
2018-08-11T09:57:34.271Z,7304.00
2018-08-11T09:58:34.192Z,7752.00
2018-08-11T09:59:34.170Z,8208.00
2018-08-11T10:00:34.186Z,8636.00
2018-08-11T10:01:34.058Z,9168.00
2018-08-11T10:02:34.328Z,9588.00
2018-08-11T10:03:34.212Z,10056.00
2018-08-11T10:04:34.099Z,10448.00
2018-08-11T10:05:34.108Z,10744.00
2018-08-11T10:06:34.122Z,11296.00
2018-08-11T10:07:34.424Z,11936.00
2018-08-11T10:08:34.130Z,12096.00
2018-08-11T10:09:34.141Z,12384.00
2018-08-11T10:10:34.321Z,12736.00
2018-08-11T10:11:34.164Z,13344.00
2018-08-11T10:12:34.430Z,13504.00
2018-08-11T10:13:34.189Z,13696.00
2018-08-11T10:14:34.199Z,14592.00
2018-08-11T10:15:34.335Z,15328.00
2018-08-11T10:16:34.216Z,15776.00
2018-08-11T10:17:34.600Z,16032.00
2018-08-11T10:18:34.461Z,16512.00
2018-08-11T10:19:34.372Z,16736.00
2018-08-11T10:20:34.260Z,17184.00
2018-08-11T10:21:34.272Z,17536.00
2018-08-11T10:22:34.484Z,17888.00
2018-08-11T10:23:34.301Z,18144.00
2018-08-11T10:24:34.434Z,18560.00
2018-08-11T10:25:34.355Z,18880.00
2018-08-11T10:26:34.329Z,19168.00
2018-08-11T10:27:34.584Z,19488.00
2018-08-11T10:28:34.483Z,19616.00
2018-08-11T10:29:34.363Z,20032.00
2018-08-11T10:30:34.388Z,20256.00
2018-08-11T10:31:34.394Z,20416.00
2018-08-11T10:32:34.735Z,20736.00
2018-08-11T10:33:34.550Z,21024.00
2018-08-11T10:34:34.435Z,21344.00
2018-08-11T10:35:34.578Z,21568.00
2018-08-11T10:37:34.741Z,22176.00
2018-08-11T10:38:34.528Z,22368.00
2018-08-11T10:39:34.508Z,22528.00
2018-08-11T10:40:34.513Z,22784.00
2018-08-11T10:41:34.522Z,23040.00
2018-08-11T10:42:34.556Z,23168.00
2018-08-11T10:43:34.933Z,23520.00
2018-08-11T10:44:34.580Z,23616.00
2018-08-11T10:45:34.717Z,23936.00
2018-08-11T10:46:34.600Z,24000.00
2018-08-11T10:47:34.618Z,24160.00
2018-08-11T10:48:34.829Z,24576.00
2018-08-11T10:49:34.638Z,24608.00
2018-08-11T10:50:34.789Z,24832.00
2018-08-11T10:51:34.661Z,24960.00
2018-08-11T10:52:34.815Z,25056.00
2018-08-11T10:53:34.705Z,25312.00
2018-08-11T10:54:34.935Z,25632.00
2018-08-11T10:55:34.859Z,25824.00
2018-08-11T10:56:34.877Z,26208.00
2018-08-11T10:57:34.773Z,26368.00
2018-08-11T10:58:34.906Z,26624.00
2018-08-11T10:59:34.780Z,26656.00
2018-08-11T11:00:35.006Z,26976.00
2018-08-11T11:01:34.955Z,27200.00
2018-08-11T11:02:34.841Z,27424.00
2018-08-11T11:03:34.850Z,27520.00
2018-08-11T11:04:34.872Z,27712.00
2018-08-11T11:05:35.110Z,27872.00
2018-08-11T11:06:34.961Z,28160.00
2018-08-11T11:07:34.930Z,28128.00
2018-08-11T11:08:34.940Z,28480.00
2018-08-11T11:09:35.086Z,28768.00
2018-08-11T11:10:35.269Z,28992.00
2018-08-11T11:11:34.991Z,29632.00
2018-08-11T11:12:35.002Z,29632.00
2018-08-11T11:13:35.016Z,29664.00
2018-08-11T11:14:35.157Z,30016.00
2018-08-11T11:15:35.378Z,31808.00
2018-08-11T11:16:35.198Z,25536.00
2018-08-11T11:17:35.211Z,30368.00
2018-08-11T11:18:35.103Z,22016.00
2018-08-11T11:19:35.245Z,26144.00
2018-08-11T11:20:35.508Z,31584.00
2018-08-11T11:21:35.273Z,21952.00
2018-08-11T11:22:35.170Z,6192.00
2018-08-11T11:23:35.202Z,30848.00
2018-08-11T11:24:35.329Z,26560.00
2018-08-11T11:25:35.472Z,20992.00
2018-08-11T11:26:35.239Z,22560.00
2018-08-11T11:27:35.248Z,23840.00
2018-08-11T11:28:35.394Z,33280.00
2018-08-11T11:29:35.408Z,19264.00
2018-08-11T11:30:35.498Z,22752.00
2018-08-11T11:31:35.323Z,20672.00
2018-08-11T11:32:35.329Z,29472.00
2018-08-11T11:33:35.353Z,16896.00
2018-08-11T11:34:35.388Z,33376.00
2018-08-11T11:35:35.589Z,28608.00
2018-08-11T11:36:35.523Z,39744.00
2018-08-11T11:37:35.448Z,26272.00
2018-08-11T11:38:35.433Z,20832.00
2018-08-11T11:39:35.492Z,5696.00
2018-08-11T11:40:35.717Z,8720.00
2018-08-11T11:41:35.482Z,11244.00
2018-08-11T11:42:35.488Z,31264.00
2018-08-11T11:43:35.517Z,24896.00
2018-08-11T11:44:35.650Z,17984.00
2018-08-11T11:45:35.745Z,28672.00
2018-08-11T11:46:35.690Z,39584.00
2018-08-11T11:47:35.574Z,8192.00
2018-08-11T11:48:35.718Z,13728.00
2018-08-11T11:49:35.605Z,93984.00
2018-08-11T11:50:35.836Z,24576.00
2018-08-11T11:51:35.688Z,6812.00
2018-08-11T11:52:35.780Z,14176.00
2018-08-11T11:53:35.679Z,24064.00
2018-08-11T11:54:35.811Z,1276.00
2018-08-11T11:55:36.009Z,99776.00
2018-08-11T11:56:35.842Z,48480.00
2018-08-11T11:57:35.860Z,17032.00
2018-08-11T11:58:35.755Z,29472.00
2018-08-11T11:59:35.894Z,58624.00
2018-08-11T12:00:35.830Z,31872.00
2018-08-11T12:01:36.135Z,36896.00
2018-08-11T12:02:35.827Z,74624.00
2018-08-11T12:03:35.842Z,19616.00
2018-08-11T12:04:35.858Z,9208.00
2018-08-11T12:05:35.867Z,23840.00
2018-08-11T12:06:36.064Z,45568.00
2018-08-11T12:07:35.887Z,24512.00
2018-08-11T12:08:35.898Z,30624.00
2018-08-11T12:09:35.943Z,17504.00
2018-08-11T12:10:36.057Z,11800.00
2018-08-11T12:11:36.149Z,24864.00
2018-08-11T12:12:36.087Z,11552.00
2018-08-11T12:13:36.042Z,8428.00
2018-08-11T12:14:36.119Z,26560.00
2018-08-11T12:15:36.011Z,44768.00
2018-08-11T12:16:36.276Z,39648.00
2018-08-11T12:17:36.036Z,35680.00
2018-08-11T12:18:36.064Z,28448.00
2018-08-11T12:19:36.107Z,7548.00
2018-08-11T12:20:36.083Z,30624.00
2018-08-11T12:21:36.303Z,708.00
2018-08-11T12:22:36.110Z,7260.00
2018-08-11T12:23:36.249Z,7136.00
2018-08-11T12:24:36.146Z,6836.00
2018-08-11T12:25:36.281Z,5968.00
2018-08-11T12:26:36.542Z,5768.00
2018-08-11T12:27:36.182Z,7304.00
2018-08-11T12:28:36.238Z,15760.00
2018-08-11T12:29:36.218Z,13372.00
2018-08-11T12:30:36.226Z,5676.00
2018-08-11T12:31:36.438Z,5932.00
2018-08-11T12:32:36.259Z,6044.00
2018-08-11T12:33:36.395Z,5732.00
2018-08-11T12:34:36.284Z,7592.00
2018-08-11T12:35:36.296Z,6212.00
2018-08-11T12:36:36.456Z,5532.00
2018-08-11T12:37:36.450Z,5596.00
2018-08-11T12:38:36.344Z,8552.00
2018-08-11T12:39:36.382Z,54720.00
2018-08-11T12:40:36.407Z,48736.00
2018-08-11T12:41:36.628Z,40224.00
2018-08-11T12:42:36.514Z,29120.00
2018-08-11T12:43:36.413Z,6948.00
2018-08-11T12:44:36.548Z,66400.00
2018-08-11T12:45:36.523Z,48992.00
2018-08-11T12:46:36.744Z,47456.00
2018-08-11T12:47:36.464Z,6540.00
2018-08-11T12:48:36.594Z,6960.00
2018-08-11T12:49:36.610Z,64224.00
2018-08-11T12:50:36.497Z,16864.00
2018-08-11T12:51:36.641Z,0.00
2018-08-11T12:52:36.848Z,31712.00
2018-08-11T12:53:36.663Z,23616.00
2018-08-11T12:54:36.548Z,9708.00
2018-08-11T12:55:36.566Z,6032.00